Time;durP1;ratioP1;P1;durP2;ratioP2;P2;SDS_P1;SDS_P2;PMS_P1;PMS_P2;Temp;Humidity;BMP_temperature;BMP_pressure;BME280_temperature;BME280_humidity;BME280_pressure;Samples;Min_cycle;Max_cycle;Signal;HPM_P1;HPM_P2
2023/12/28 00:00:42;;;;;;;4.10;1.47;;;4.20;24.80;;;;;;5042098;28;46694;-79
2023/12/28 00:03:07;;;;;;;3.33;1.57;;;4.50;24.20;;;;;;5038609;28;46451;-77
2023/12/28 00:05:33;;;;;;;2.33;1.30;;;4.70;23.80;;;;;;5029257;28;46558;-79
2023/12/28 00:07:59;;;;;;;2.70;1.40;;;4.70;23.30;;;;;;5041413;28;46547;-78
2023/12/28 00:10:26;;;;;;;3.60;1.40;;;4.70;23.40;;;;;;5041229;28;46662;-78
2023/12/28 00:12:51;;;;;;;2.20;1.13;;;4.70;23.40;;;;;;5024592;28;46359;-79
2023/12/28 00:15:17;;;;;;;2.67;1.67;;;4.80;23.40;;;;;;5045262;28;46715;-79
2023/12/28 00:17:43;;;;;;;2.00;1.40;;;4.80;23.50;;;;;;5045870;28;46723;-79
2023/12/28 00:20:09;;;;;;;5.00;1.60;;;4.80;23.40;;;;;;5042001;28;46267;-79
2023/12/28 00:22:37;;;;;;;3.50;1.50;;;4.80;23.40;;;;;;5044427;28;46420;-78
2023/12/28 00:25:03;;;;;;;2.97;1.40;;;4.70;23.30;;;;;;5043326;28;46451;-79
2023/12/28 00:27:29;;;;;;;3.50;1.73;;;4.60;23.30;;;;;;5023199;28;50080;-78
2023/12/28 00:29:55;;;;;;;2.60;1.60;;;4.60;23.30;;;;;;5041797;28;46436;-76
2023/12/28 00:32:20;;;;;;;3.80;1.70;;;4.50;23.20;;;;;;5021058;28;47224;-80
2023/12/28 00:34:46;;;;;;;2.67;1.50;;;4.40;23.60;;;;;;5038844;28;46699;-75
2023/12/28 00:37:11;;;;;;;3.37;1.50;;;4.40;23.30;;;;;;5039393;28;46545;-77
2023/12/28 00:39:38;;;;;;;2.20;1.10;;;4.50;23.20;;;;;;5038659;28;46518;-77
2023/12/28 00:42:04;;;;;;;2.67;1.43;;;4.70;23.40;;;;;;5039055;28;46994;-76
2023/12/28 00:44:29;;;;;;;2.37;1.40;;;4.80;23.40;;;;;;5020706;28;46704;-79
2023/12/28 00:46:55;;;;;;;1.97;1.33;;;4.90;22.70;;;;;;5020253;28;48166;-77
2023/12/28 00:49:20;;;;;;;2.23;1.20;;;5.00;22.60;;;;;;5038337;28;46555;-77
2023/12/28 00:51:46;;;;;;;3.00;1.40;;;5.00;22.50;;;;;;5038979;28;46709;-79
2023/12/28 00:54:11;;;;;;;2.57;1.40;;;4.90;22.40;;;;;;5022321;28;46778;-78
2023/12/28 00:56:37;;;;;;;2.73;1.30;;;4.80;22.40;;;;;;5038702;28;46871;-78
2023/12/28 00:59:03;;;;;;;3.10;1.40;;;4.90;22.30;;;;;;5021331;28;46668;-78
2023/12/28 01:01:30;;;;;;;3.07;1.53;;;4.90;22.20;;;;;;5038835;28;47118;-78
2023/12/28 01:03:56;;;;;;;3.97;1.40;;;4.90;22.10;;;;;;5040023;28;47292;-78
2023/12/28 01:06:21;;;;;;;2.60;1.27;;;4.80;22.10;;;;;;5037371;28;46338;-77
2023/12/28 01:08:47;;;;;;;2.80;1.47;;;4.80;22.10;;;;;;5043046;28;46447;-79
2023/12/28 01:11:13;;;;;;;3.03;1.53;;;4.80;22.10;;;;;;5041170;28;46481;-78
2023/12/28 01:13:38;;;;;;;2.77;1.20;;;4.80;21.90;;;;;;5015713;28;46719;-78
2023/12/28 01:16:04;;;;;;;2.53;1.30;;;4.80;21.90;;;;;;5041722;28;46396;-78
2023/12/28 01:18:29;;;;;;;3.90;1.93;;;4.80;21.70;;;;;;5024467;28;46483;-78
2023/12/28 01:20:55;;;;;;;5.37;1.60;;;4.80;21.70;;;;;;5040667;28;46727;-79
2023/12/28 01:23:21;;;;;;;3.30;1.70;;;4.70;21.60;;;;;;5024683;28;46394;-78
2023/12/28 01:25:46;;;;;;;3.77;1.70;;;4.70;21.60;;;;;;5042691;28;47822;-76
2023/12/28 01:28:12;;;;;;;4.07;1.77;;;4.50;21.70;;;;;;5040697;28;46563;-78
2023/12/28 01:30:37;;;;;;;4.43;1.80;;;4.20;22.00;;;;;;5042465;28;47252;-79
2023/12/28 01:33:03;;;;;;;3.40;1.60;;;3.90;22.60;;;;;;5042853;28;46568;-78
2023/12/28 01:35:29;;;;;;;3.93;1.47;;;3.80;22.70;;;;;;5042802;28;47526;-78
2023/12/28 01:37:55;;;;;;;3.73;1.40;;;3.70;22.70;;;;;;5024739;28;46399;-77
2023/12/28 01:40:20;;;;;;;3.00;1.30;;;3.70;22.70;;;;;;5019038;28;46459;-77
2023/12/28 01:42:46;;;;;;;3.17;1.33;;;3.80;22.70;;;;;;5043842;28;46796;-79
2023/12/28 01:45:11;;;;;;;3.17;1.50;;;3.90;22.00;;;;;;5041905;28;46706;-78
2023/12/28 01:47:37;;;;;;;1.93;1.20;;;4.00;21.70;;;;;;5041583;28;46460;-78
2023/12/28 01:50:05;;;;;;;2.83;1.50;;;4.10;21.40;;;;;;5043157;28;46706;-78
2023/12/28 01:52:31;;;;;;;2.37;1.40;;;4.10;21.20;;;;;;5043614;28;46438;-79
2023/12/28 01:54:57;;;;;;;2.50;1.50;;;4.20;21.10;;;;;;5042344;28;47217;-78
2023/12/28 01:57:24;;;;;;;3.57;1.80;;;4.20;20.90;;;;;;5043397;28;46774;-78
2023/12/28 01:59:50;;;;;;;2.37;1.40;;;4.20;20.80;;;;;;5045286;28;46385;-79
2023/12/28 02:02:16;;;;;;;1.90;1.33;;;4.20;20.80;;;;;;5046632;28;46455;-79
2023/12/28 02:04:41;;;;;;;3.70;1.43;;;4.10;20.80;;;;;;5045515;28;47245;-78
2023/12/28 02:07:08;;;;;;;3.57;1.60;;;4.10;20.90;;;;;;5046290;28;46490;-78
2023/12/28 02:09:33;;;;;;;3.93;1.57;;;4.10;20.80;;;;;;5045440;28;46511;-79
2023/12/28 02:11:59;;;;;;;2.57;1.43;;;4.00;20.90;;;;;;5021930;28;46431;-79
2023/12/28 02:14:25;;;;;;;2.60;1.70;;;4.00;20.80;;;;;;5047314;28;46650;-79
2023/12/28 02:17:07;;;;;;;2.90;1.30;;;3.90;20.90;;;;;;5030688;28;46432;-79
2023/12/28 02:19:42;;;;;;;3.43;1.50;;;3.80;20.90;;;;;;5045667;28;46471;-79
2023/12/28 02:22:09;;;;;;;3.13;1.43;;;3.80;21.00;;;;;;5047368;28;45847;-78
2023/12/28 02:24:53;;;;;;;3.00;1.77;;;3.70;21.00;;;;;;5025636;28;48057;-78
2023/12/28 02:27:18;;;;;;;3.15;1.55;;;3.60;21.20;;;;;;5040081;28;46761;-78
2023/12/28 02:29:44;;;;;;;3.80;1.70;;;3.50;21.30;;;;;;5042860;28;45872;-78
2023/12/28 02:32:11;;;;;;;5.10;1.40;;;3.40;21.40;;;;;;5042108;28;46540;-78
2023/12/28 02:34:41;;;;;;;2.67;1.60;;;3.30;21.40;;;;;;5025226;28;49388;-78
2023/12/28 02:37:07;;;;;;;3.30;1.65;;;3.30;21.60;;;;;;5040540;28;46588;-78
2023/12/28 02:39:33;;;;;;;3.10;1.50;;;3.20;21.80;;;;;;5042933;28;46528;-77
2023/12/28 02:41:58;;;;;;;2.03;1.37;;;3.10;21.80;;;;;;5022394;28;45923;-78
2023/12/28 02:44:24;;;;;;;3.20;1.57;;;3.00;21.80;;;;;;5041839;28;47097;-79
2023/12/28 02:46:50;;;;;;;3.83;1.87;;;3.00;21.80;;;;;;5041792;28;46807;-78
2023/12/28 02:49:15;;;;;;;2.60;1.33;;;3.00;21.80;;;;;;5023984;28;46809;-78
2023/12/28 02:51:42;;;;;;;3.67;1.73;;;3.10;21.60;;;;;;5021894;28;46971;-78
2023/12/28 02:54:08;;;;;;;2.47;1.60;;;3.10;21.60;;;;;;5040226;28;46657;-78
2023/12/28 02:56:33;;;;;;;6.70;1.70;;;3.10;21.50;;;;;;5040867;28;46725;-78
2023/12/28 02:58:59;;;;;;;3.67;1.73;;;3.00;21.50;;;;;;5042615;28;46390;-78
2023/12/28 03:01:24;;;;;;;3.90;1.63;;;3.00;21.60;;;;;;5024452;28;46513;-79
2023/12/28 03:03:50;;;;;;;2.70;1.40;;;3.00;21.70;;;;;;5042367;28;47073;-77
2023/12/28 03:09:39;;;;;;;3.03;1.60;;;3.10;21.30;;;;;;5039578;28;46242;-78
2023/12/28 03:12:06;;;;;;;2.47;1.40;;;3.00;21.80;;;;;;5040740;28;46747;-78
2023/12/28 03:14:40;;;;;;;2.87;1.33;;;2.90;22.20;;;;;;5039788;28;46495;-78
2023/12/28 03:17:06;;;;;;;2.00;1.20;;;2.90;22.20;;;;;;5041915;28;46586;-78
2023/12/28 03:19:31;;;;;;;1.90;1.13;;;2.90;22.20;;;;;;5023463;28;46359;-78
2023/12/28 03:21:57;;;;;;;2.13;1.07;;;3.20;21.80;;;;;;5023027;28;46384;-77
2023/12/28 03:24:22;;;;;;;2.50;1.40;;;3.50;21.40;;;;;;5040076;28;46475;-77
2023/12/28 03:26:48;;;;;;;2.00;1.30;;;3.50;21.20;;;;;;5039272;28;46673;-77
2023/12/28 03:29:13;;;;;;;4.83;1.50;;;3.40;21.30;;;;;;5040085;28;46470;-78
2023/12/28 03:31:40;;;;;;;2.90;1.60;;;3.30;21.60;;;;;;5042211;28;46549;-78
2023/12/28 03:34:06;;;;;;;2.73;1.60;;;3.20;21.80;;;;;;5021486;28;48117;-78
2023/12/28 03:36:31;;;;;;;4.47;1.40;;;3.10;22.30;;;;;;5040602;28;46469;-78
2023/12/28 03:38:57;;;;;;;3.67;1.30;;;3.00;22.30;;;;;;5021922;28;46524;-77
2023/12/28 03:41:22;;;;;;;4.60;1.20;;;3.00;22.20;;;;;;5040085;28;46554;-77
2023/12/28 03:43:48;;;;;;;2.77;1.60;;;3.00;22.10;;;;;;5040777;28;46426;-77
2023/12/28 03:46:14;;;;;;;1.47;1.00;;;3.00;22.20;;;;;;5022411;28;45865;-77
2023/12/28 03:48:39;;;;;;;2.50;1.33;;;3.00;22.00;;;;;;5040463;28;46859;-77
2023/12/28 03:51:05;;;;;;;2.23;1.27;;;3.00;21.90;;;;;;5040216;28;46617;-77
2023/12/28 03:53:31;;;;;;;1.63;1.00;;;3.10;21.60;;;;;;5021483;28;49215;-79
2023/12/28 03:55:58;;;;;;;2.60;1.30;;;3.10;21.50;;;;;;5025289;28;46766;-78
2023/12/28 03:58:24;;;;;;;2.80;1.17;;;3.10;21.70;;;;;;5040892;28;46510;-78
2023/12/28 04:00:49;;;;;;;1.53;1.00;;;3.10;21.60;;;;;;5041089;28;46568;-78
2023/12/28 04:03:15;;;;;;;2.57;1.30;;;3.10;21.70;;;;;;5023764;28;48009;-78
2023/12/28 04:05:41;;;;;;;1.63;1.20;;;3.10;21.80;;;;;;5024320;28;47100;-79
2023/12/28 04:08:07;;;;;;;1.53;0.83;;;3.00;22.00;;;;;;5039683;28;45809;-77
2023/12/28 04:10:33;;;;;;;2.10;1.07;;;3.00;22.10;;;;;;5041758;28;46441;-79
2023/12/28 04:12:59;;;;;;;2.43;1.10;;;3.10;22.00;;;;;;5037344;28;46098;-79
2023/12/28 04:15:26;;;;;;;1.70;0.95;;;3.10;21.90;;;;;;5056460;28;46307;-77
2023/12/28 04:17:52;;;;;;;1.77;1.00;;;3.20;21.50;;;;;;5039319;28;46444;-76
2023/12/28 04:20:17;;;;;;;1.27;0.97;;;3.30;21.40;;;;;;5021976;28;46393;-77
2023/12/28 04:22:43;;;;;;;1.43;0.80;;;3.30;21.30;;;;;;5039121;28;46669;-77
2023/12/28 04:25:12;;;;;;;1.90;1.00;;;3.40;21.30;;;;;;5038721;28;46361;-78
2023/12/28 04:27:38;;;;;;;1.80;1.10;;;3.40;21.20;;;;;;5039019;28;46835;-77
2023/12/28 04:30:05;;;;;;;2.70;1.17;;;3.40;21.20;;;;;;5038036;28;46793;-75
2023/12/28 04:32:34;;;;;;;1.40;1.00;;;3.50;21.10;;;;;;5035524;28;46640;-78
2023/12/28 04:34:59;;;;;;;1.88;0.95;;;3.60;20.80;;;;;;5039072;28;46656;-78
2023/12/28 04:37:28;;;;;;;2.17;1.00;;;3.60;20.80;;;;;;5038869;28;46656;-77
2023/12/28 04:39:54;;;;;;;1.20;0.80;;;3.50;21.00;;;;;;5022818;28;46473;-79
2023/12/28 04:42:19;;;;;;;2.00;1.00;;;3.50;21.20;;;;;;5026293;28;48084;-79
2023/12/28 04:44:45;;;;;;;2.40;1.20;;;3.40;21.20;;;;;;5040514;28;46412;-78
2023/12/28 04:47:10;;;;;;;1.57;0.90;;;3.20;21.40;;;;;;5042581;28;46432;-78
2023/12/28 04:49:36;;;;;;;1.93;1.07;;;3.00;21.70;;;;;;5043909;28;46713;-79
2023/12/28 04:52:01;;;;;;;2.80;1.10;;;2.90;22.20;;;;;;5043854;28;46626;-78
2023/12/28 04:54:27;;;;;;;1.93;0.97;;;2.80;22.10;;;;;;5043970;28;46470;-79
2023/12/28 04:56:53;;;;;;;1.40;0.90;;;2.80;22.10;;;;;;5044222;28;46630;-78
2023/12/28 04:59:18;;;;;;;1.93;1.10;;;2.80;22.10;;;;;;5026857;28;46713;-79
2023/12/28 05:01:44;;;;;;;1.80;1.00;;;2.80;22.10;;;;;;5043673;28;47399;-79
2023/12/28 05:04:10;;;;;;;3.33;1.00;;;2.80;22.10;;;;;;5043140;28;46252;-79
2023/12/28 05:06:36;;;;;;;1.90;1.10;;;2.80;22.00;;;;;;5044814;28;46506;-78
2023/12/28 05:09:02;;;;;;;2.90;1.00;;;2.80;21.90;;;;;;5044123;28;46474;-78
2023/12/28 05:11:27;;;;;;;2.43;1.03;;;2.80;22.00;;;;;;5044793;28;47973;-78
2023/12/28 05:17:15;;;;;;;2.85;0.90;;;2.80;21.90;;;;;;5042820;28;46444;-78
2023/12/28 05:19:41;;;;;;;1.93;0.90;;;2.80;21.70;;;;;;5027139;28;46822;-78
2023/12/28 05:22:08;;;;;;;2.67;1.10;;;2.80;21.70;;;;;;5043795;28;46777;-77
2023/12/28 05:24:34;;;;;;;1.85;1.05;;;2.80;21.60;;;;;;5044500;28;46877;-78
2023/12/28 05:26:59;;;;;;;5.40;1.00;;;2.80;21.80;;;;;;5045101;28;46946;-78
2023/12/28 05:29:25;;;;;;;1.70;0.93;;;2.80;21.50;;;;;;5044214;28;46399;-77
2023/12/28 05:31:50;;;;;;;1.70;1.00;;;2.90;21.50;;;;;;5043412;28;46214;-79
2023/12/28 05:34:16;;;;;;;2.97;2.23;;;3.00;21.40;;;;;;5042547;28;46589;-78
2023/12/28 05:36:41;;;;;;;4.50;2.50;;;3.10;21.30;;;;;;5043687;28;46706;-79
2023/12/28 05:39:09;;;;;;;3.93;1.67;;;3.10;21.20;;;;;;5044470;28;45865;-77
2023/12/28 05:41:35;;;;;;;2.30;1.43;;;3.20;21.20;;;;;;5027646;28;49699;-78
2023/12/28 05:44:00;;;;;;;2.30;1.30;;;3.10;21.30;;;;;;5042583;28;46492;-78
2023/12/28 05:46:26;;;;;;;3.10;1.77;;;3.00;21.40;;;;;;5024921;28;46860;-79
2023/12/28 05:48:51;;;;;;;2.97;1.87;;;2.90;21.40;;;;;;5043060;28;46416;-79
2023/12/28 05:51:18;;;;;;;1.80;1.30;;;2.90;22.00;;;;;;5042449;28;46273;-79
2023/12/28 05:53:44;;;;;;;2.58;1.30;;;2.90;21.60;;;;;;5028413;28;46944;-79
2023/12/28 05:56:09;;;;;;;2.07;1.20;;;2.90;21.50;;;;;;5045251;28;46158;-79
2023/12/28 05:58:36;;;;;;;1.70;1.20;;;2.90;21.50;;;;;;5044932;28;46419;-79
2023/12/28 06:01:04;;;;;;;2.05;1.00;;;2.80;21.60;;;;;;5028765;28;49413;-78
2023/12/28 06:03:30;;;;;;;1.88;0.90;;;2.70;21.90;;;;;;5045587;28;46470;-77
2023/12/28 06:05:56;;;;;;;1.53;0.90;;;2.60;22.00;;;;;;5046938;28;46421;-78
2023/12/28 06:08:22;;;;;;;1.67;0.80;;;2.50;21.90;;;;;;5045162;28;46529;-79
2023/12/28 06:10:47;;;;;;;3.33;1.17;;;2.40;21.80;;;;;;5045381;28;47109;-79
2023/12/28 06:13:13;;;;;;;1.70;1.10;;;2.30;21.80;;;;;;5042390;28;46447;-78
2023/12/28 06:15:38;;;;;;;2.20;1.23;;;2.30;21.80;;;;;;5043337;28;46518;-78
2023/12/28 06:18:04;;;;;;;2.50;1.47;;;2.30;21.80;;;;;;5042182;28;46477;-79
2023/12/28 06:20:30;;;;;;;3.33;1.37;;;2.40;21.80;;;;;;5027362;28;49599;-76
2023/12/28 06:22:55;;;;;;;2.57;1.40;;;2.60;22.00;;;;;;5039988;28;46759;-78
2023/12/28 06:25:21;;;;;;;5.27;3.07;;;2.70;22.60;;;;;;5043276;28;46425;-77
2023/12/28 06:27:46;;;;;;;6.47;3.77;;;2.90;21.20;;;;;;5024187;28;47198;-77
2023/12/28 06:30:12;;;;;;;3.37;1.97;;;3.10;20.90;;;;;;5037495;28;46833;-79
2023/12/28 06:32:38;;;;;;;2.95;1.77;;;3.20;20.80;;;;;;5041874;28;46456;-78
2023/12/28 06:35:04;;;;;;;2.90;1.93;;;3.30;20.60;;;;;;5043179;28;46611;-77
2023/12/28 06:37:30;;;;;;;3.90;1.90;;;3.50;20.30;;;;;;5021685;28;46947;-77
2023/12/28 06:39:55;;;;;;;5.83;1.63;;;3.60;20.10;;;;;;5022019;28;47877;-77
2023/12/28 06:42:21;;;;;;;5.57;1.87;;;3.70;20.10;;;;;;5040305;28;46522;-78
2023/12/28 06:44:46;;;;;;;3.30;2.00;;;3.70;20.10;;;;;;5024421;28;46490;-77
2023/12/28 06:47:13;;;;;;;3.67;1.77;;;3.70;20.00;;;;;;5038996;28;46628;-77
2023/12/28 06:49:38;;;;;;;8.68;4.00;;;3.80;20.10;;;;;;5025022;28;48591;-78
2023/12/28 06:52:04;;;;;;;3.23;1.70;;;3.90;19.90;;;;;;5041287;28;46510;-78
2023/12/28 06:54:29;;;;;;;4.03;2.03;;;4.00;19.70;;;;;;5044740;28;46765;-79
2023/12/28 06:56:55;;;;;;;3.60;1.87;;;4.00;19.60;;;;;;5030708;28;46995;-78
2023/12/28 06:59:20;;;;;;;3.63;1.90;;;4.10;19.60;;;;;;5047352;28;46825;-78
2023/12/28 07:01:48;;;;;;;4.00;2.13;;;4.20;19.40;;;;;;5038761;28;46307;-78
2023/12/28 07:04:13;;;;;;;2.77;1.60;;;4.30;20.30;;;;;;5022271;28;46485;-78
2023/12/28 07:06:39;;;;;;;2.33;1.47;;;4.50;19.10;;;;;;5044800;28;46626;-76
2023/12/28 07:09:05;;;;;;;4.43;1.63;;;4.50;19.90;;;;;;5024745;28;47095;-79
2023/12/28 07:11:31;;;;;;;3.80;1.50;;;4.60;18.80;;;;;;5042332;28;45902;-79
2023/12/28 07:13:56;;;;;;;4.10;1.90;;;4.70;18.70;;;;;;5040723;28;46858;-79
2023/12/28 07:16:22;;;;;;;5.37;2.50;;;4.90;18.70;;;;;;5022623;28;46527;-77
2023/12/28 07:18:47;;;;;;;7.60;3.57;;;4.90;18.50;;;;;;5042885;28;46464;-78
2023/12/28 07:21:13;;;;;;;3.00;1.80;;;4.90;18.60;;;;;;5039949;28;46372;-78
2023/12/28 07:23:39;;;;;;;1.97;1.20;;;4.90;19.10;;;;;;5040254;28;46501;-77
2023/12/28 07:26:05;;;;;;;5.60;2.57;;;4.80;18.80;;;;;;5025291;28;46356;-78
2023/12/28 07:28:31;;;;;;;20.20;8.77;;;4.80;18.90;;;;;;5043707;28;47480;-79
2023/12/28 07:30:56;;;;;;;12.97;6.07;;;4.90;18.80;;;;;;5023656;28;46626;-77
2023/12/28 07:33:22;;;;;;;6.53;3.50;;;5.10;18.60;;;;;;5040198;28;46398;-79
2023/12/28 07:35:48;;;;;;;5.90;3.23;;;5.30;18.30;;;;;;5043636;28;46770;-78
2023/12/28 07:38:13;;;;;;;8.17;5.33;;;5.40;17.80;;;;;;5043339;28;47181;-78
2023/12/28 07:40:39;;;;;;;6.70;3.60;;;5.50;17.50;;;;;;5040548;28;46743;-77
2023/12/28 07:43:05;;;;;;;8.60;4.20;;;5.60;17.30;;;;;;5042124;28;46476;-78
2023/12/28 07:45:31;;;;;;;9.93;4.80;;;5.80;17.10;;;;;;5042225;28;46565;-78
2023/12/28 07:47:59;;;;;;;2.00;1.33;;;5.90;16.90;;;;;;5041668;28;46148;-78
2023/12/28 07:50:24;;;;;;;3.30;1.17;;;6.00;16.70;;;;;;5022787;28;46563;-78
2023/12/28 07:52:50;;;;;;;2.03;1.20;;;5.80;16.90;;;;;;5042129;28;46506;-77
2023/12/28 07:55:16;;;;;;;5.73;1.60;;;5.70;17.10;;;;;;5025322;28;46662;-79
2023/12/28 07:57:42;;;;;;;3.10;1.73;;;5.60;17.40;;;;;;5026371;28;48240;-78
2023/12/28 08:00:08;;;;;;;3.27;1.77;;;5.50;17.60;;;;;;5025651;28;46255;-77
2023/12/28 08:02:33;;;;;;;3.57;2.07;;;5.50;17.80;;;;;;5037167;28;46476;-78
2023/12/28 08:04:59;;;;;;;2.63;1.40;;;5.70;17.60;;;;;;5021693;28;45891;-78
2023/12/28 08:07:24;;;;;;;3.23;1.60;;;5.90;17.30;;;;;;5039298;28;47523;-79
2023/12/28 08:09:50;;;;;;;9.37;2.03;;;6.10;17.20;;;;;;5040872;28;46834;-78
2023/12/28 08:12:16;;;;;;;2.20;1.60;;;6.30;17.00;;;;;;5019451;28;46989;-78
2023/12/28 08:14:42;;;;;;;4.07;2.30;;;6.60;16.70;;;;;;5037056;28;46778;-78
2023/12/28 08:17:08;;;;;;;4.70;2.20;;;6.70;16.30;;;;;;5020370;28;50730;-78
2023/12/28 08:19:33;;;;;;;4.70;2.20;;;7.00;16.00;;;;;;5038430;28;46759;-78
2023/12/28 08:21:59;;;;;;;2.60;1.37;;;7.10;15.70;;;;;;5039871;28;46413;-76
2023/12/28 08:24:25;;;;;;;3.67;2.03;;;7.20;15.60;;;;;;5040438;28;46502;-78
2023/12/28 08:26:50;;;;;;;5.40;3.13;;;7.30;15.40;;;;;;5039458;28;46422;-78
2023/12/28 08:29:17;;;;;;;5.40;2.60;;;7.40;15.40;;;;;;5036665;28;46194;-76
2023/12/28 08:31:43;;;;;;;6.60;2.70;;;7.40;15.20;;;;;;5038290;28;46446;-78
2023/12/28 08:34:08;;;;;;;7.10;3.10;;;7.50;15.10;;;;;;5039224;28;46488;-78
2023/12/28 08:36:35;;;;;;;4.00;2.10;;;7.60;14.80;;;;;;5021000;28;48579;-78
2023/12/28 08:39:01;;;;;;;3.90;2.00;;;7.80;14.60;;;;;;5039275;28;46495;-78
2023/12/28 08:41:26;;;;;;;4.70;1.63;;;7.90;14.70;;;;;;5038252;28;46229;-78
2023/12/28 08:43:53;;;;;;;4.60;1.60;;;8.10;13.60;;;;;;5039025;28;46482;-78
2023/12/28 08:46:21;;;;;;;5.60;1.73;;;8.30;13.50;;;;;;5040627;28;47350;-78
2023/12/28 08:48:46;;;;;;;2.80;1.60;;;8.40;13.10;;;;;;5035657;28;46698;-78
2023/12/28 08:51:14;;;;;;;2.87;1.70;;;8.50;12.90;;;;;;5038315;28;46480;-76
2023/12/28 08:53:40;;;;;;;2.73;1.40;;;8.60;12.90;;;;;;5020958;28;46447;-78
2023/12/28 08:56:20;;;;;;;3.03;1.60;;;8.60;13.00;;;;;;5019106;28;48289;-78
2023/12/28 08:58:47;;;;;;;6.50;1.80;;;8.60;13.10;;;;;;5034332;28;46521;-78
2023/12/28 09:01:23;;;;;;;2.40;1.37;;;8.60;13.30;;;;;;5037902;28;47112;-80
2023/12/28 09:03:49;;;;;;;3.67;1.60;;;8.60;13.20;;;;;;5019548;28;46489;-79
2023/12/28 09:06:16;;;;;;;5.13;1.70;;;8.70;13.30;;;;;;5019114;28;48646;-79
2023/12/28 09:08:43;;;;;;;3.13;1.20;;;8.80;13.10;;;;;;5037944;28;46522;-79
2023/12/28 09:11:13;;;;;;;3.20;1.90;;;9.10;12.90;;;;;;5039440;28;46144;-79
2023/12/28 09:13:40;;;;;;;4.33;1.30;;;9.30;12.40;;;;;;5039082;28;46448;-78
2023/12/28 09:16:07;;;;;;;5.20;2.73;;;9.50;12.00;;;;;;5040859;28;46686;-77
2023/12/28 09:18:33;;;;;;;4.00;1.90;;;9.70;11.70;;;;;;5028123;28;46556;-77
2023/12/28 09:20:59;;;;;;;2.40;1.30;;;9.80;11.30;;;;;;5029908;28;45871;-77
2023/12/28 09:23:24;;;;;;;2.73;1.50;;;10.00;10.20;;;;;;5039574;28;46002;-79
2023/12/28 09:25:50;;;;;;;3.33;1.37;;;10.20;10.00;;;;;;5037489;28;47544;-77
2023/12/28 09:28:15;;;;;;;2.87;1.23;;;10.30;9.80;;;;;;5042848;28;46758;-77
2023/12/28 09:30:41;;;;;;;3.17;1.27;;;10.30;9.50;;;;;;5022557;28;46752;-78
2023/12/28 09:33:06;;;;;;;2.67;1.33;;;10.40;9.40;;;;;;5008738;28;47676;-78
2023/12/28 09:35:32;;;;;;;3.40;1.20;;;10.50;9.30;;;;;;5035817;28;46637;-76
2023/12/28 09:37:57;;;;;;;2.90;1.40;;;10.50;8.60;;;;;;5038697;28;46999;-78
2023/12/28 09:40:24;;;;;;;2.90;1.10;;;10.40;9.20;;;;;;5039811;28;47676;-78
2023/12/28 09:43:18;;;;;;;1.80;1.00;;;10.40;9.10;;;;;;5038782;28;47037;-77
2023/12/28 09:45:47;;;;;;;2.33;1.30;;;10.60;9.00;;;;;;5027771;28;48055;-78
2023/12/28 09:48:16;;;;;;;4.13;1.17;;;10.60;8.90;;;;;;5037004;28;46476;-78
2023/12/28 09:50:42;;;;;;;2.50;1.50;;;10.70;8.80;;;;;;5040034;28;46408;-78
2023/12/28 09:53:07;;;;;;;3.80;1.40;;;10.80;8.80;;;;;;5038710;28;47658;-78
2023/12/28 09:55:33;;;;;;;3.27;1.63;;;10.90;8.70;;;;;;5011638;28;48229;-77
2023/12/28 09:58:01;;;;;;;2.80;1.40;;;11.00;8.40;;;;;;5036417;28;46427;-77
2023/12/28 10:00:27;;;;;;;1.90;1.07;;;11.10;8.20;;;;;;5033704;28;46434;-77
2023/12/28 10:02:52;;;;;;;3.10;1.50;;;11.20;8.00;;;;;;5035106;28;46918;-78
2023/12/28 10:05:18;;;;;;;2.87;1.40;;;11.30;7.80;;;;;;5034447;28;47276;-78
2023/12/28 10:07:45;;;;;;;4.97;2.07;;;11.30;7.60;;;;;;5019949;28;46633;-77
2023/12/28 10:10:11;;;;;;;5.27;3.43;;;11.40;7.40;;;;;;5020092;28;46174;-78
2023/12/28 10:12:37;;;;;;;3.73;2.63;;;11.60;7.10;;;;;;5036312;28;46501;-77
2023/12/28 10:15:04;;;;;;;3.70;1.67;;;11.50;6.80;;;;;;5037394;28;46683;-78
2023/12/28 10:17:33;;;;;;;3.33;1.70;;;11.50;6.50;;;;;;5018693;28;46511;-79
2023/12/28 10:20:09;;;;;;;2.93;1.50;;;11.50;6.50;;;;;;5037265;28;46920;-77
2023/12/28 10:22:37;;;;;;;3.50;1.40;;;11.60;6.40;;;;;;5018969;28;46467;-78
2023/12/28 10:25:03;;;;;;;3.10;1.50;;;11.60;6.20;;;;;;5018880;28;47964;-77
2023/12/28 10:27:29;;;;;;;2.67;1.40;;;11.70;6.10;;;;;;5040610;28;46131;-79
2023/12/28 10:29:57;;;;;;;2.80;1.23;;;11.80;6.30;;;;;;5040813;28;46798;-78
2023/12/28 10:32:24;;;;;;;3.70;1.73;;;11.80;6.30;;;;;;5038396;28;46624;-78
2023/12/28 10:34:52;;;;;;;3.20;1.53;;;11.80;6.40;;;;;;5038806;28;46740;-77
2023/12/28 10:37:20;;;;;;;2.87;1.40;;;11.90;6.60;;;;;;5035911;28;46460;-79
2023/12/28 10:39:49;;;;;;;3.13;1.50;;;11.90;6.50;;;;;;5039917;28;46695;-79
2023/12/28 10:42:24;;;;;;;3.20;1.67;;;11.90;6.30;;;;;;5036774;28;46544;-77
2023/12/28 10:44:52;;;;;;;4.27;1.53;;;12.20;6.30;;;;;;5039504;28;47387;-79
2023/12/28 10:47:19;;;;;;;1.63;0.93;;;12.10;6.10;;;;;;5043597;28;46800;-79
2023/12/28 10:49:48;;;;;;;11.27;4.80;;;12.10;6.10;;;;;;5040469;28;46530;-79
2023/12/28 10:52:16;;;;;;;4.50;1.90;;;12.10;6.30;;;;;;5025325;28;47394;-78
2023/12/28 10:55:05;;;;;;;3.73;1.40;;;12.20;6.10;;;;;;5040303;28;46559;-79
2023/12/28 10:57:40;;;;;;;3.20;1.33;;;12.20;5.80;;;;;;5045779;28;46441;-78
2023/12/28 11:00:20;;;;;;;3.23;1.67;;;12.10;5.70;;;;;;5037734;28;46567;-78
2023/12/28 11:02:48;;;;;;;2.40;1.30;;;12.10;5.70;;;;;;5018966;28;46003;-77
2023/12/28 11:05:16;;;;;;;2.90;1.40;;;12.10;5.70;;;;;;5039679;28;46650;-77
2023/12/28 11:07:43;;;;;;;5.23;1.20;;;12.10;5.80;;;;;;5023857;28;46584;-78
2023/12/28 11:10:10;;;;;;;3.40;1.70;;;12.10;5.70;;;;;;5017494;28;46937;-79
2023/12/28 11:12:36;;;;;;;4.87;1.60;;;12.00;5.70;;;;;;5039112;28;46958;-78
2023/12/28 11:15:03;;;;;;;2.50;1.30;;;12.10;5.70;;;;;;5038993;28;47139;-78
2023/12/28 11:17:31;;;;;;;2.27;1.27;;;12.10;5.70;;;;;;5039455;28;46500;-78
2023/12/28 11:19:57;;;;;;;4.00;1.30;;;12.10;5.30;;;;;;5035506;28;46853;-78
2023/12/28 11:22:25;;;;;;;2.37;1.17;;;12.20;5.00;;;;;;5018340;28;46828;-79
2023/12/28 11:24:53;;;;;;;2.87;1.40;;;12.20;4.90;;;;;;5036359;28;46439;-80
2023/12/28 11:27:19;;;;;;;2.83;1.40;;;12.20;4.60;;;;;;5037089;28;46556;-78
2023/12/28 11:29:45;;;;;;;4.67;1.77;;;12.20;4.50;;;;;;5037356;28;47266;-78
2023/12/28 11:32:10;;;;;;;2.90;1.33;;;12.20;4.50;;;;;;5035564;28;46830;-78
2023/12/28 11:34:38;;;;;;;3.07;1.50;;;12.10;4.50;;;;;;5037555;28;47263;-77
2023/12/28 11:37:09;;;;;;;2.80;1.40;;;12.10;4.50;;;;;;5038096;28;46092;-78
2023/12/28 11:39:39;;;;;;;3.00;1.63;;;12.10;4.40;;;;;;5037881;28;46295;-79
2023/12/28 11:42:09;;;;;;;2.67;1.50;;;12.00;4.30;;;;;;5034972;28;46863;-77
2023/12/28 11:44:43;;;;;;;4.73;1.30;;;11.90;4.40;;;;;;5037380;28;47155;-78
2023/12/28 11:47:27;;;;;;;6.80;2.03;;;11.80;4.30;;;;;;5039671;28;46438;-78
2023/12/28 11:49:54;;;;;;;6.10;1.50;;;11.80;4.40;;;;;;5037835;28;48001;-78
2023/12/28 11:52:25;;;;;;;3.20;1.40;;;11.70;4.50;;;;;;5020855;28;46270;-79
2023/12/28 11:54:50;;;;;;;2.33;1.30;;;11.80;4.30;;;;;;5020226;28;47978;-79
2023/12/28 11:57:16;;;;;;;2.60;1.30;;;11.70;4.20;;;;;;5040356;28;46236;-79
2023/12/28 11:59:43;;;;;;;6.33;1.23;;;11.70;4.20;;;;;;5039316;28;46516;-78
2023/12/28 12:02:09;;;;;;;2.57;1.30;;;11.70;4.20;;;;;;5034477;28;46746;-79
2023/12/28 12:04:35;;;;;;;4.03;1.20;;;11.70;4.10;;;;;;5037303;28;46497;-79
2023/12/28 12:07:04;;;;;;;2.87;1.43;;;11.70;4.00;;;;;;5020160;28;46480;-80
2023/12/28 12:09:34;;;;;;;2.90;1.30;;;11.70;3.90;;;;;;5038568;28;46490;-78
2023/12/28 12:12:00;;;;;;;2.80;1.20;;;11.70;4.00;;;;;;5036714;28;45949;-77
2023/12/28 12:14:26;;;;;;;3.43;1.37;;;11.70;4.00;;;;;;5039626;28;46691;-77
2023/12/28 12:16:52;;;;;;;3.37;1.20;;;11.70;3.90;;;;;;5037937;28;45954;-79
2023/12/28 12:19:18;;;;;;;3.07;1.43;;;11.70;3.80;;;;;;5038899;28;45900;-77
2023/12/28 12:21:43;;;;;;;3.63;1.30;;;11.70;3.80;;;;;;5019753;28;46562;-78
2023/12/28 12:24:10;;;;;;;2.37;1.40;;;11.70;3.80;;;;;;5039514;28;47224;-78
2023/12/28 12:26:36;;;;;;;5.03;2.87;;;11.70;3.60;;;;;;5041938;28;46808;-80
2023/12/28 12:29:02;;;;;;;8.70;4.63;;;11.80;3.70;;;;;;5023764;28;46868;-78
2023/12/28 12:31:28;;;;;;;8.00;4.87;;;11.90;3.60;;;;;;5039044;28;45898;-80
2023/12/28 12:33:53;;;;;;;4.73;3.37;;;11.80;4.50;;;;;;5039307;28;47253;-81
2023/12/28 12:36:21;;;;;;;4.30;2.57;;;11.80;3.60;;;;;;5020206;28;46437;-78
2023/12/28 12:38:47;;;;;;;4.47;3.13;;;11.80;3.60;;;;;;5040531;28;46786;-79
2023/12/28 12:41:13;;;;;;;2.97;2.00;;;11.80;3.70;;;;;;5035694;28;46809;-78
2023/12/28 12:43:40;;;;;;;2.40;1.40;;;12.00;3.80;;;;;;5040214;28;46834;-78
2023/12/28 12:46:06;;;;;;;3.60;1.60;;;11.80;3.80;;;;;;5023788;28;46548;-79
2023/12/28 12:48:32;;;;;;;3.20;1.30;;;11.80;3.80;;;;;;5038978;28;46400;-78
2023/12/28 12:50:57;;;;;;;3.70;1.70;;;11.80;3.80;;;;;;5020262;28;47252;-80
2023/12/28 12:53:23;;;;;;;3.33;1.60;;;11.80;3.80;;;;;;5038893;28;46483;-78
2023/12/28 12:55:53;;;;;;;3.00;1.37;;;11.80;3.90;;;;;;5017998;28;46480;-77
2023/12/28 12:58:20;;;;;;;3.90;1.67;;;11.80;3.80;;;;;;5034198;28;46555;-80
2023/12/28 13:00:46;;;;;;;4.63;1.80;;;11.80;3.80;;;;;;5014836;28;47015;-79